sensor_id;sensor_type;location;lat;lon;timestamp;P1;durP1;ratioP1;P2;durP2;ratioP2
19339;SDS011;9804;52.350;6.684;2023-09-30T00:02:21;20.35;;;6.25;;
19339;SDS011;9804;52.350;6.684;2023-09-30T00:04:46;23.08;;;5.90;;
19339;SDS011;9804;52.350;6.684;2023-09-30T00:07:12;20.27;;;6.13;;
19339;SDS011;9804;52.350;6.684;2023-09-30T00:09:37;20.25;;;5.55;;
19339;SDS011;9804;52.350;6.684;2023-09-30T00:12:02;23.27;;;5.65;;
19339;SDS011;9804;52.350;6.684;2023-09-30T00:14:28;21.02;;;6.45;;
19339;SDS011;9804;52.350;6.684;2023-09-30T00:16:54;30.10;;;5.90;;
19339;SDS011;9804;52.350;6.684;2023-09-30T00:19:20;23.38;;;5.38;;
19339;SDS011;9804;52.350;6.684;2023-09-30T00:21:47;22.95;;;5.82;;
19339;SDS011;9804;52.350;6.684;2023-09-30T00:24:13;22.40;;;6.43;;
19339;SDS011;9804;52.350;6.684;2023-09-30T00:26:38;23.35;;;5.55;;
19339;SDS011;9804;52.350;6.684;2023-09-30T00:29:04;20.63;;;5.88;;
19339;SDS011;9804;52.350;6.684;2023-09-30T00:31:30;24.98;;;5.75;;
19339;SDS011;9804;52.350;6.684;2023-09-30T00:33:56;21.67;;;5.82;;
19339;SDS011;9804;52.350;6.684;2023-09-30T00:36:21;18.80;;;5.10;;
19339;SDS011;9804;52.350;6.684;2023-09-30T00:38:47;20.45;;;6.22;;
19339;SDS011;9804;52.350;6.684;2023-09-30T00:41:12;20.38;;;5.28;;
19339;SDS011;9804;52.350;6.684;2023-09-30T00:43:37;17.88;;;5.15;;
19339;SDS011;9804;52.350;6.684;2023-09-30T00:46:09;20.80;;;5.72;;
19339;SDS011;9804;52.350;6.684;2023-09-30T00:48:54;19.23;;;4.85;;
19339;SDS011;9804;52.350;6.684;2023-09-30T00:51:21;22.35;;;5.88;;
19339;SDS011;9804;52.350;6.684;2023-09-30T00:53:48;17.08;;;5.35;;
19339;SDS011;9804;52.350;6.684;2023-09-30T00:56:18;22.63;;;5.22;;
19339;SDS011;9804;52.350;6.684;2023-09-30T00:58:48;23.00;;;5.85;;
19339;SDS011;9804;52.350;6.684;2023-09-30T01:01:16;19.73;;;5.07;;
19339;SDS011;9804;52.350;6.684;2023-09-30T01:03:41;23.50;;;5.78;;
19339;SDS011;9804;52.350;6.684;2023-09-30T01:06:07;16.48;;;5.05;;
19339;SDS011;9804;52.350;6.684;2023-09-30T01:08:32;17.45;;;5.63;;
19339;SDS011;9804;52.350;6.684;2023-09-30T01:10:59;13.68;;;5.13;;
19339;SDS011;9804;52.350;6.684;2023-09-30T01:13:35;18.70;;;5.20;;
19339;SDS011;9804;52.350;6.684;2023-09-30T01:16:05;20.50;;;5.38;;
19339;SDS011;9804;52.350;6.684;2023-09-30T01:18:31;21.90;;;5.15;;
19339;SDS011;9804;52.350;6.684;2023-09-30T01:20:57;17.25;;;5.45;;
19339;SDS011;9804;52.350;6.684;2023-09-30T01:23:28;20.17;;;4.90;;
19339;SDS011;9804;52.350;6.684;2023-09-30T01:25:54;22.10;;;5.28;;
19339;SDS011;9804;52.350;6.684;2023-09-30T01:28:19;19.85;;;5.53;;
19339;SDS011;9804;52.350;6.684;2023-09-30T01:30:45;26.83;;;5.72;;
19339;SDS011;9804;52.350;6.684;2023-09-30T01:33:10;20.98;;;5.20;;
19339;SDS011;9804;52.350;6.684;2023-09-30T01:35:36;22.63;;;5.95;;
19339;SDS011;9804;52.350;6.684;2023-09-30T01:38:01;24.77;;;5.97;;
19339;SDS011;9804;52.350;6.684;2023-09-30T01:40:27;19.17;;;6.25;;
19339;SDS011;9804;52.350;6.684;2023-09-30T01:42:52;23.25;;;6.43;;
19339;SDS011;9804;52.350;6.684;2023-09-30T01:45:17;21.02;;;6.28;;
19339;SDS011;9804;52.350;6.684;2023-09-30T01:47:43;24.08;;;6.60;;
19339;SDS011;9804;52.350;6.684;2023-09-30T01:50:08;20.45;;;6.93;;
19339;SDS011;9804;52.350;6.684;2023-09-30T01:52:34;20.85;;;6.05;;
19339;SDS011;9804;52.350;6.684;2023-09-30T01:54:59;26.25;;;7.00;;
19339;SDS011;9804;52.350;6.684;2023-09-30T01:57:25;25.60;;;6.90;;
19339;SDS011;9804;52.350;6.684;2023-09-30T01:59:50;26.58;;;6.60;;
19339;SDS011;9804;52.350;6.684;2023-09-30T02:02:16;22.35;;;7.03;;
19339;SDS011;9804;52.350;6.684;2023-09-30T02:04:42;24.58;;;7.03;;
19339;SDS011;9804;52.350;6.684;2023-09-30T02:07:08;24.38;;;6.97;;
19339;SDS011;9804;52.350;6.684;2023-09-30T02:09:34;23.83;;;6.90;;
19339;SDS011;9804;52.350;6.684;2023-09-30T02:11:59;30.65;;;6.55;;
19339;SDS011;9804;52.350;6.684;2023-09-30T02:14:25;24.33;;;7.18;;
19339;SDS011;9804;52.350;6.684;2023-09-30T02:16:50;31.08;;;7.75;;
19339;SDS011;9804;52.350;6.684;2023-09-30T02:19:16;23.85;;;7.05;;
19339;SDS011;9804;52.350;6.684;2023-09-30T02:21:41;25.90;;;8.15;;
19339;SDS011;9804;52.350;6.684;2023-09-30T02:24:07;25.25;;;7.90;;
19339;SDS011;9804;52.350;6.684;2023-09-30T02:26:32;25.58;;;8.05;;
19339;SDS011;9804;52.350;6.684;2023-09-30T02:28:58;25.08;;;8.52;;
19339;SDS011;9804;52.350;6.684;2023-09-30T02:31:24;28.05;;;8.30;;
19339;SDS011;9804;52.350;6.684;2023-09-30T02:33:49;22.42;;;8.00;;
19339;SDS011;9804;52.350;6.684;2023-09-30T02:36:15;23.73;;;8.38;;
19339;SDS011;9804;52.350;6.684;2023-09-30T02:38:40;23.50;;;8.32;;
19339;SDS011;9804;52.350;6.684;2023-09-30T02:41:06;25.30;;;8.25;;
19339;SDS011;9804;52.350;6.684;2023-09-30T02:43:32;27.42;;;8.02;;
19339;SDS011;9804;52.350;6.684;2023-09-30T02:45:58;24.15;;;8.10;;
19339;SDS011;9804;52.350;6.684;2023-09-30T02:48:23;29.15;;;8.80;;
19339;SDS011;9804;52.350;6.684;2023-09-30T02:50:49;22.95;;;8.23;;
19339;SDS011;9804;52.350;6.684;2023-09-30T02:53:14;28.70;;;10.10;;
19339;SDS011;9804;52.350;6.684;2023-09-30T02:55:40;22.85;;;7.88;;
19339;SDS011;9804;52.350;6.684;2023-09-30T02:58:07;29.33;;;9.90;;
19339;SDS011;9804;52.350;6.684;2023-09-30T03:00:33;26.10;;;8.98;;
19339;SDS011;9804;52.350;6.684;2023-09-30T03:03:00;30.75;;;9.73;;
19339;SDS011;9804;52.350;6.684;2023-09-30T03:05:27;25.65;;;10.10;;
19339;SDS011;9804;52.350;6.684;2023-09-30T03:07:55;22.88;;;10.40;;
19339;SDS011;9804;52.350;6.684;2023-09-30T03:10:21;28.60;;;9.75;;
19339;SDS011;9804;52.350;6.684;2023-09-30T03:12:51;28.35;;;10.35;;
19339;SDS011;9804;52.350;6.684;2023-09-30T03:15:17;23.50;;;10.43;;
19339;SDS011;9804;52.350;6.684;2023-09-30T03:17:43;28.20;;;9.90;;
19339;SDS011;9804;52.350;6.684;2023-09-30T03:20:09;27.40;;;10.75;;
19339;SDS011;9804;52.350;6.684;2023-09-30T03:22:44;29.48;;;10.10;;
19339;SDS011;9804;52.350;6.684;2023-09-30T03:25:13;32.05;;;13.15;;
19339;SDS011;9804;52.350;6.684;2023-09-30T03:27:41;22.58;;;9.73;;
19339;SDS011;9804;52.350;6.684;2023-09-30T03:30:07;29.88;;;10.63;;
19339;SDS011;9804;52.350;6.684;2023-09-30T03:32:33;25.88;;;10.98;;
19339;SDS011;9804;52.350;6.684;2023-09-30T03:35:03;27.33;;;11.02;;
19339;SDS011;9804;52.350;6.684;2023-09-30T03:37:31;28.80;;;10.57;;
19339;SDS011;9804;52.350;6.684;2023-09-30T03:39:57;24.63;;;10.68;;
19339;SDS011;9804;52.350;6.684;2023-09-30T03:42:23;25.20;;;11.25;;
19339;SDS011;9804;52.350;6.684;2023-09-30T03:44:48;27.55;;;12.98;;
19339;SDS011;9804;52.350;6.684;2023-09-30T03:47:18;33.10;;;12.93;;
19339;SDS011;9804;52.350;6.684;2023-09-30T03:49:43;26.33;;;11.20;;
19339;SDS011;9804;52.350;6.684;2023-09-30T03:52:09;25.83;;;11.48;;
19339;SDS011;9804;52.350;6.684;2023-09-30T03:54:35;35.47;;;12.15;;
19339;SDS011;9804;52.350;6.684;2023-09-30T03:57:02;30.15;;;11.68;;
19339;SDS011;9804;52.350;6.684;2023-09-30T03:59:28;33.42;;;11.98;;
19339;SDS011;9804;52.350;6.684;2023-09-30T04:01:55;27.83;;;11.63;;
19339;SDS011;9804;52.350;6.684;2023-09-30T04:04:22;28.50;;;11.63;;
19339;SDS011;9804;52.350;6.684;2023-09-30T04:06:47;31.33;;;12.63;;
19339;SDS011;9804;52.350;6.684;2023-09-30T04:09:13;35.20;;;12.35;;
19339;SDS011;9804;52.350;6.684;2023-09-30T04:11:38;36.97;;;12.93;;
19339;SDS011;9804;52.350;6.684;2023-09-30T04:14:07;31.58;;;12.30;;
19339;SDS011;9804;52.350;6.684;2023-09-30T04:16:33;29.55;;;13.77;;
19339;SDS011;9804;52.350;6.684;2023-09-30T04:18:59;27.25;;;12.07;;
19339;SDS011;9804;52.350;6.684;2023-09-30T04:21:25;24.95;;;11.35;;
19339;SDS011;9804;52.350;6.684;2023-09-30T04:23:52;29.08;;;13.27;;
19339;SDS011;9804;52.350;6.684;2023-09-30T04:26:18;31.38;;;12.38;;
19339;SDS011;9804;52.350;6.684;2023-09-30T04:28:43;39.20;;;12.90;;
19339;SDS011;9804;52.350;6.684;2023-09-30T04:31:09;34.50;;;12.93;;
19339;SDS011;9804;52.350;6.684;2023-09-30T04:33:34;23.20;;;10.20;;
19339;SDS011;9804;52.350;6.684;2023-09-30T04:36:01;33.10;;;14.43;;
19339;SDS011;9804;52.350;6.684;2023-09-30T04:38:27;34.08;;;13.35;;
19339;SDS011;9804;52.350;6.684;2023-09-30T04:40:52;26.92;;;12.82;;
19339;SDS011;9804;52.350;6.684;2023-09-30T04:43:19;31.13;;;13.85;;
19339;SDS011;9804;52.350;6.684;2023-09-30T04:45:45;30.27;;;13.45;;
19339;SDS011;9804;52.350;6.684;2023-09-30T04:48:11;28.05;;;12.70;;
19339;SDS011;9804;52.350;6.684;2023-09-30T04:50:38;35.70;;;13.38;;
19339;SDS011;9804;52.350;6.684;2023-09-30T04:53:06;33.17;;;13.75;;
19339;SDS011;9804;52.350;6.684;2023-09-30T04:55:32;34.28;;;12.68;;
19339;SDS011;9804;52.350;6.684;2023-09-30T04:57:58;28.40;;;12.32;;
19339;SDS011;9804;52.350;6.684;2023-09-30T05:00:23;36.53;;;13.77;;
19339;SDS011;9804;52.350;6.684;2023-09-30T05:02:54;31.33;;;12.98;;
19339;SDS011;9804;52.350;6.684;2023-09-30T05:05:20;29.67;;;12.32;;
19339;SDS011;9804;52.350;6.684;2023-09-30T05:07:46;32.53;;;13.57;;
19339;SDS011;9804;52.350;6.684;2023-09-30T05:10:12;33.88;;;14.10;;
19339;SDS011;9804;52.350;6.684;2023-09-30T05:12:44;34.95;;;14.15;;
19339;SDS011;9804;52.350;6.684;2023-09-30T05:15:11;32.42;;;14.98;;
19339;SDS011;9804;52.350;6.684;2023-09-30T05:17:44;34.55;;;15.10;;
19339;SDS011;9804;52.350;6.684;2023-09-30T05:20:10;37.17;;;15.00;;
19339;SDS011;9804;52.350;6.684;2023-09-30T05:22:38;34.28;;;14.50;;
19339;SDS011;9804;52.350;6.684;2023-09-30T05:25:05;32.13;;;15.80;;
19339;SDS011;9804;52.350;6.684;2023-09-30T05:27:32;34.75;;;16.67;;
19339;SDS011;9804;52.350;6.684;2023-09-30T05:29:57;35.33;;;15.45;;
19339;SDS011;9804;52.350;6.684;2023-09-30T05:32:23;36.95;;;14.80;;
19339;SDS011;9804;52.350;6.684;2023-09-30T05:34:48;36.28;;;16.05;;
19339;SDS011;9804;52.350;6.684;2023-09-30T05:37:14;34.05;;;14.50;;
19339;SDS011;9804;52.350;6.684;2023-09-30T05:39:39;40.88;;;17.02;;
19339;SDS011;9804;52.350;6.684;2023-09-30T05:42:05;32.33;;;16.20;;
19339;SDS011;9804;52.350;6.684;2023-09-30T05:44:31;38.42;;;17.27;;
19339;SDS011;9804;52.350;6.684;2023-09-30T05:46:57;42.15;;;18.42;;
19339;SDS011;9804;52.350;6.684;2023-09-30T05:49:22;45.53;;;17.42;;
19339;SDS011;9804;52.350;6.684;2023-09-30T05:51:48;48.75;;;18.40;;
19339;SDS011;9804;52.350;6.684;2023-09-30T05:54:15;40.05;;;17.55;;
19339;SDS011;9804;52.350;6.684;2023-09-30T05:56:41;39.70;;;16.55;;
19339;SDS011;9804;52.350;6.684;2023-09-30T05:59:08;31.13;;;12.68;;
19339;SDS011;9804;52.350;6.684;2023-09-30T06:01:34;35.60;;;18.67;;
19339;SDS011;9804;52.350;6.684;2023-09-30T06:04:01;47.78;;;18.58;;
19339;SDS011;9804;52.350;6.684;2023-09-30T06:06:26;39.45;;;19.17;;
19339;SDS011;9804;52.350;6.684;2023-09-30T06:08:54;48.25;;;19.75;;
19339;SDS011;9804;52.350;6.684;2023-09-30T06:11:23;38.63;;;18.88;;
19339;SDS011;9804;52.350;6.684;2023-09-30T06:13:54;33.67;;;18.02;;
19339;SDS011;9804;52.350;6.684;2023-09-30T06:16:21;38.95;;;18.60;;
19339;SDS011;9804;52.350;6.684;2023-09-30T06:18:46;38.35;;;19.45;;
19339;SDS011;9804;52.350;6.684;2023-09-30T06:21:13;45.40;;;20.38;;
19339;SDS011;9804;52.350;6.684;2023-09-30T06:23:39;43.42;;;19.65;;
19339;SDS011;9804;52.350;6.684;2023-09-30T06:26:05;43.72;;;20.67;;
19339;SDS011;9804;52.350;6.684;2023-09-30T06:28:31;43.35;;;19.77;;
19339;SDS011;9804;52.350;6.684;2023-09-30T06:30:59;46.28;;;20.73;;
19339;SDS011;9804;52.350;6.684;2023-09-30T06:33:24;46.45;;;20.55;;
19339;SDS011;9804;52.350;6.684;2023-09-30T06:35:50;44.33;;;21.85;;
19339;SDS011;9804;52.350;6.684;2023-09-30T06:38:18;47.70;;;22.25;;
19339;SDS011;9804;52.350;6.684;2023-09-30T06:40:44;49.10;;;22.88;;
19339;SDS011;9804;52.350;6.684;2023-09-30T06:43:11;50.47;;;23.80;;
19339;SDS011;9804;52.350;6.684;2023-09-30T06:45:37;41.60;;;22.48;;
19339;SDS011;9804;52.350;6.684;2023-09-30T06:48:07;45.67;;;22.48;;
19339;SDS011;9804;52.350;6.684;2023-09-30T06:50:39;40.47;;;20.83;;
19339;SDS011;9804;52.350;6.684;2023-09-30T06:53:08;48.95;;;24.25;;
19339;SDS011;9804;52.350;6.684;2023-09-30T06:55:34;46.17;;;23.00;;
19339;SDS011;9804;52.350;6.684;2023-09-30T06:58:02;45.85;;;24.55;;
19339;SDS011;9804;52.350;6.684;2023-09-30T07:00:27;46.45;;;25.20;;
19339;SDS011;9804;52.350;6.684;2023-09-30T07:02:52;52.30;;;25.75;;
19339;SDS011;9804;52.350;6.684;2023-09-30T07:05:18;52.47;;;25.77;;
19339;SDS011;9804;52.350;6.684;2023-09-30T07:07:44;51.42;;;26.42;;
19339;SDS011;9804;52.350;6.684;2023-09-30T07:10:10;42.63;;;25.80;;
19339;SDS011;9804;52.350;6.684;2023-09-30T07:12:36;51.65;;;25.55;;
19339;SDS011;9804;52.350;6.684;2023-09-30T07:15:02;48.97;;;27.48;;
19339;SDS011;9804;52.350;6.684;2023-09-30T07:17:29;45.40;;;26.40;;
19339;SDS011;9804;52.350;6.684;2023-09-30T07:19:55;49.05;;;26.33;;
19339;SDS011;9804;52.350;6.684;2023-09-30T07:22:20;49.20;;;26.00;;
19339;SDS011;9804;52.350;6.684;2023-09-30T07:24:45;49.90;;;27.63;;
19339;SDS011;9804;52.350;6.684;2023-09-30T07:27:11;47.08;;;27.05;;
19339;SDS011;9804;52.350;6.684;2023-09-30T07:29:36;51.95;;;25.98;;
19339;SDS011;9804;52.350;6.684;2023-09-30T07:32:02;53.00;;;26.48;;
19339;SDS011;9804;52.350;6.684;2023-09-30T07:34:27;45.53;;;26.50;;
19339;SDS011;9804;52.350;6.684;2023-09-30T07:36:53;45.58;;;25.92;;
19339;SDS011;9804;52.350;6.684;2023-09-30T07:39:18;51.67;;;27.67;;
19339;SDS011;9804;52.350;6.684;2023-09-30T07:41:43;42.15;;;25.67;;
19339;SDS011;9804;52.350;6.684;2023-09-30T07:44:09;45.03;;;24.55;;
19339;SDS011;9804;52.350;6.684;2023-09-30T07:46:34;51.33;;;27.05;;
19339;SDS011;9804;52.350;6.684;2023-09-30T07:49:00;43.97;;;24.88;;
19339;SDS011;9804;52.350;6.684;2023-09-30T07:51:25;46.47;;;25.23;;
19339;SDS011;9804;52.350;6.684;2023-09-30T07:53:51;47.42;;;28.02;;
19339;SDS011;9804;52.350;6.684;2023-09-30T07:56:17;48.38;;;25.67;;
19339;SDS011;9804;52.350;6.684;2023-09-30T07:58:42;36.20;;;23.90;;
19339;SDS011;9804;52.350;6.684;2023-09-30T08:01:08;47.25;;;26.50;;
19339;SDS011;9804;52.350;6.684;2023-09-30T08:03:33;41.33;;;25.25;;
19339;SDS011;9804;52.350;6.684;2023-09-30T08:05:59;41.25;;;24.17;;
19339;SDS011;9804;52.350;6.684;2023-09-30T08:08:25;43.40;;;24.88;;
19339;SDS011;9804;52.350;6.684;2023-09-30T08:10:50;39.08;;;22.52;;
19339;SDS011;9804;52.350;6.684;2023-09-30T08:13:20;40.17;;;23.10;;
19339;SDS011;9804;52.350;6.684;2023-09-30T08:15:46;44.13;;;23.90;;
19339;SDS011;9804;52.350;6.684;2023-09-30T08:18:11;33.92;;;22.30;;
19339;SDS011;9804;52.350;6.684;2023-09-30T08:20:36;37.58;;;22.90;;
19339;SDS011;9804;52.350;6.684;2023-09-30T08:23:02;37.65;;;21.25;;
19339;SDS011;9804;52.350;6.684;2023-09-30T08:25:28;38.60;;;21.83;;
19339;SDS011;9804;52.350;6.684;2023-09-30T08:27:53;33.20;;;19.85;;
19339;SDS011;9804;52.350;6.684;2023-09-30T08:30:19;34.92;;;20.25;;
19339;SDS011;9804;52.350;6.684;2023-09-30T08:32:45;32.10;;;19.73;;
19339;SDS011;9804;52.350;6.684;2023-09-30T08:35:11;27.15;;;18.40;;
19339;SDS011;9804;52.350;6.684;2023-09-30T08:37:39;28.58;;;18.13;;
19339;SDS011;9804;52.350;6.684;2023-09-30T08:40:05;27.35;;;16.33;;
19339;SDS011;9804;52.350;6.684;2023-09-30T08:42:31;28.08;;;15.98;;
19339;SDS011;9804;52.350;6.684;2023-09-30T08:44:58;28.15;;;16.27;;
19339;SDS011;9804;52.350;6.684;2023-09-30T08:47:27;33.20;;;16.35;;
19339;SDS011;9804;52.350;6.684;2023-09-30T08:49:59;23.45;;;14.80;;
19339;SDS011;9804;52.350;6.684;2023-09-30T08:52:30;24.15;;;14.75;;
19339;SDS011;9804;52.350;6.684;2023-09-30T08:54:57;24.60;;;15.40;;
19339;SDS011;9804;52.350;6.684;2023-09-30T08:57:22;22.42;;;12.85;;
19339;SDS011;9804;52.350;6.684;2023-09-30T08:59:49;21.73;;;13.88;;
19339;SDS011;9804;52.350;6.684;2023-09-30T09:02:17;23.17;;;14.60;;
19339;SDS011;9804;52.350;6.684;2023-09-30T09:04:43;26.55;;;14.35;;
19339;SDS011;9804;52.350;6.684;2023-09-30T09:07:10;24.15;;;14.05;;
19339;SDS011;9804;52.350;6.684;2023-09-30T09:09:36;21.13;;;12.48;;
19339;SDS011;9804;52.350;6.684;2023-09-30T09:12:02;25.27;;;12.55;;
19339;SDS011;9804;52.350;6.684;2023-09-30T09:14:37;27.48;;;12.93;;
19339;SDS011;9804;52.350;6.684;2023-09-30T09:17:06;24.80;;;12.98;;
19339;SDS011;9804;52.350;6.684;2023-09-30T09:19:32;19.00;;;12.68;;
19339;SDS011;9804;52.350;6.684;2023-09-30T09:22:01;22.02;;;13.00;;
19339;SDS011;9804;52.350;6.684;2023-09-30T09:29:49;20.25;;;12.43;;
19339;SDS011;9804;52.350;6.684;2023-09-30T09:32:15;26.75;;;11.20;;
19339;SDS011;9804;52.350;6.684;2023-09-30T09:34:42;22.05;;;10.90;;
19339;SDS011;9804;52.350;6.684;2023-09-30T09:37:19;19.80;;;11.40;;
19339;SDS011;9804;52.350;6.684;2023-09-30T09:39:49;22.40;;;10.60;;
19339;SDS011;9804;52.350;6.684;2023-09-30T09:42:23;24.95;;;10.68;;
19339;SDS011;9804;52.350;6.684;2023-09-30T09:44:53;19.52;;;9.90;;
19339;SDS011;9804;52.350;6.684;2023-09-30T09:47:21;19.85;;;9.48;;
19339;SDS011;9804;52.350;6.684;2023-09-30T09:49:47;17.13;;;9.25;;
19339;SDS011;9804;52.350;6.684;2023-09-30T09:52:12;20.88;;;9.50;;
19339;SDS011;9804;52.350;6.684;2023-09-30T09:54:40;14.98;;;7.45;;
19339;SDS011;9804;52.350;6.684;2023-09-30T09:57:08;12.70;;;6.28;;
19339;SDS011;9804;52.350;6.684;2023-09-30T09:59:35;14.90;;;7.82;;
19339;SDS011;9804;52.350;6.684;2023-09-30T10:02:01;14.57;;;6.78;;
19339;SDS011;9804;52.350;6.684;2023-09-30T10:04:35;14.80;;;7.80;;
19339;SDS011;9804;52.350;6.684;2023-09-30T10:07:01;16.58;;;7.47;;
19339;SDS011;9804;52.350;6.684;2023-09-30T10:09:28;15.52;;;7.35;;
19339;SDS011;9804;52.350;6.684;2023-09-30T10:11:59;16.60;;;7.30;;
19339;SDS011;9804;52.350;6.684;2023-09-30T10:14:29;16.45;;;7.30;;
19339;SDS011;9804;52.350;6.684;2023-09-30T10:16:57;14.48;;;6.75;;
19339;SDS011;9804;52.350;6.684;2023-09-30T10:19:23;14.00;;;6.85;;
19339;SDS011;9804;52.350;6.684;2023-09-30T10:24:46;15.27;;;6.00;;
19339;SDS011;9804;52.350;6.684;2023-09-30T10:29:46;12.43;;;4.75;;
19339;SDS011;9804;52.350;6.684;2023-09-30T10:32:12;14.85;;;5.40;;
19339;SDS011;9804;52.350;6.684;2023-09-30T10:34:38;9.75;;;4.30;;
19339;SDS011;9804;52.350;6.684;2023-09-30T10:37:19;12.38;;;4.93;;
19339;SDS011;9804;52.350;6.684;2023-09-30T10:39:52;12.48;;;4.57;;
19339;SDS011;9804;52.350;6.684;2023-09-30T10:45:41;10.48;;;4.43;;
19339;SDS011;9804;52.350;6.684;2023-09-30T10:51:00;12.98;;;4.45;;
19339;SDS011;9804;52.350;6.684;2023-09-30T10:53:40;11.23;;;3.58;;
19339;SDS011;9804;52.350;6.684;2023-09-30T10:56:10;9.02;;;3.45;;
19339;SDS011;9804;52.350;6.684;2023-09-30T11:01:05;6.85;;;2.58;;
19339;SDS011;9804;52.350;6.684;2023-09-30T11:03:30;11.32;;;3.50;;
19339;SDS011;9804;52.350;6.684;2023-09-30T11:05:55;10.55;;;3.58;;
19339;SDS011;9804;52.350;6.684;2023-09-30T11:08:21;12.60;;;3.38;;
19339;SDS011;9804;52.350;6.684;2023-09-30T11:10:48;9.43;;;3.58;;
19339;SDS011;9804;52.350;6.684;2023-09-30T11:13:15;10.50;;;2.95;;
19339;SDS011;9804;52.350;6.684;2023-09-30T11:15:41;9.10;;;2.92;;
19339;SDS011;9804;52.350;6.684;2023-09-30T11:18:13;12.40;;;3.30;;
19339;SDS011;9804;52.350;6.684;2023-09-30T11:20:39;10.95;;;3.35;;
19339;SDS011;9804;52.350;6.684;2023-09-30T11:23:04;13.95;;;3.50;;
19339;SDS011;9804;52.350;6.684;2023-09-30T11:25:34;7.80;;;2.58;;
19339;SDS011;9804;52.350;6.684;2023-09-30T11:28:14;9.57;;;3.10;;
19339;SDS011;9804;52.350;6.684;2023-09-30T11:30:56;10.40;;;2.80;;
19339;SDS011;9804;52.350;6.684;2023-09-30T11:33:22;11.35;;;3.17;;
19339;SDS011;9804;52.350;6.684;2023-09-30T11:36:22;11.60;;;3.75;;
19339;SDS011;9804;52.350;6.684;2023-09-30T11:38:44;9.38;;;3.45;;
19339;SDS011;9804;52.350;6.684;2023-09-30T11:41:11;12.85;;;3.58;;
19339;SDS011;9804;52.350;6.684;2023-09-30T11:43:37;10.90;;;3.63;;
19339;SDS011;9804;52.350;6.684;2023-09-30T11:46:10;8.57;;;2.67;;
19339;SDS011;9804;52.350;6.684;2023-09-30T11:48:38;10.85;;;2.67;;
19339;SDS011;9804;52.350;6.684;2023-09-30T11:51:20;7.68;;;2.45;;
19339;SDS011;9804;52.350;6.684;2023-09-30T11:53:49;11.68;;;2.78;;
19339;SDS011;9804;52.350;6.684;2023-09-30T11:56:15;8.85;;;2.72;;
19339;SDS011;9804;52.350;6.684;2023-09-30T11:58:40;10.43;;;2.95;;
19339;SDS011;9804;52.350;6.684;2023-09-30T12:01:06;10.00;;;2.97;;
19339;SDS011;9804;52.350;6.684;2023-09-30T12:03:32;9.63;;;3.20;;
19339;SDS011;9804;52.350;6.684;2023-09-30T12:06:01;8.60;;;3.50;;
19339;SDS011;9804;52.350;6.684;2023-09-30T12:08:27;8.23;;;2.72;;
19339;SDS011;9804;52.350;6.684;2023-09-30T12:10:54;11.73;;;3.05;;
19339;SDS011;9804;52.350;6.684;2023-09-30T12:13:21;14.10;;;3.80;;
19339;SDS011;9804;52.350;6.684;2023-09-30T12:15:46;9.18;;;2.40;;
19339;SDS011;9804;52.350;6.684;2023-09-30T12:18:12;10.07;;;2.63;;
19339;SDS011;9804;52.350;6.684;2023-09-30T12:20:39;10.20;;;2.37;;
19339;SDS011;9804;52.350;6.684;2023-09-30T12:23:06;11.10;;;2.85;;
19339;SDS011;9804;52.350;6.684;2023-09-30T12:25:32;11.52;;;3.20;;
19339;SDS011;9804;52.350;6.684;2023-09-30T12:27:58;10.63;;;3.35;;
19339;SDS011;9804;52.350;6.684;2023-09-30T12:30:24;10.02;;;2.35;;
19339;SDS011;9804;52.350;6.684;2023-09-30T12:32:49;12.00;;;3.25;;
19339;SDS011;9804;52.350;6.684;2023-09-30T12:35:14;10.60;;;3.00;;
19339;SDS011;9804;52.350;6.684;2023-09-30T12:37:40;8.60;;;3.30;;
19339;SDS011;9804;52.350;6.684;2023-09-30T12:40:07;10.40;;;3.17;;
19339;SDS011;9804;52.350;6.684;2023-09-30T12:42:33;8.68;;;3.33;;
19339;SDS011;9804;52.350;6.684;2023-09-30T12:45:02;8.25;;;3.05;;
19339;SDS011;9804;52.350;6.684;2023-09-30T12:47:27;9.98;;;3.17;;
19339;SDS011;9804;52.350;6.684;2023-09-30T12:49:53;10.25;;;3.13;;
19339;SDS011;9804;52.350;6.684;2023-09-30T12:52:19;7.38;;;2.80;;
19339;SDS011;9804;52.350;6.684;2023-09-30T12:54:45;10.65;;;2.90;;
19339;SDS011;9804;52.350;6.684;2023-09-30T12:57:10;11.75;;;3.58;;
19339;SDS011;9804;52.350;6.684;2023-09-30T12:59:38;13.15;;;2.85;;
19339;SDS011;9804;52.350;6.684;2023-09-30T13:02:04;7.30;;;2.60;;
19339;SDS011;9804;52.350;6.684;2023-09-30T13:04:30;12.82;;;3.08;;
19339;SDS011;9804;52.350;6.684;2023-09-30T13:06:55;15.48;;;3.70;;
19339;SDS011;9804;52.350;6.684;2023-09-30T13:09:21;9.38;;;3.25;;
19339;SDS011;9804;52.350;6.684;2023-09-30T13:11:46;12.75;;;3.38;;
19339;SDS011;9804;52.350;6.684;2023-09-30T13:14:12;11.32;;;3.17;;
19339;SDS011;9804;52.350;6.684;2023-09-30T13:16:38;9.77;;;3.00;;
19339;SDS011;9804;52.350;6.684;2023-09-30T13:19:04;9.05;;;2.95;;
19339;SDS011;9804;52.350;6.684;2023-09-30T13:21:29;9.63;;;3.00;;
19339;SDS011;9804;52.350;6.684;2023-09-30T13:23:55;11.32;;;3.35;;
19339;SDS011;9804;52.350;6.684;2023-09-30T13:26:20;15.15;;;3.20;;
19339;SDS011;9804;52.350;6.684;2023-09-30T13:28:45;8.88;;;2.72;;
19339;SDS011;9804;52.350;6.684;2023-09-30T13:31:11;9.43;;;2.90;;
19339;SDS011;9804;52.350;6.684;2023-09-30T13:33:36;7.72;;;3.13;;
19339;SDS011;9804;52.350;6.684;2023-09-30T13:36:03;9.80;;;2.90;;
19339;SDS011;9804;52.350;6.684;2023-09-30T13:38:29;13.07;;;2.97;;
19339;SDS011;9804;52.350;6.684;2023-09-30T13:40:54;9.95;;;2.75;;
19339;SDS011;9804;52.350;6.684;2023-09-30T13:43:19;8.43;;;2.78;;
19339;SDS011;9804;52.350;6.684;2023-09-30T13:45:45;12.38;;;2.50;;
19339;SDS011;9804;52.350;6.684;2023-09-30T13:48:11;11.20;;;3.10;;
19339;SDS011;9804;52.350;6.684;2023-09-30T13:50:36;12.80;;;3.05;;
19339;SDS011;9804;52.350;6.684;2023-09-30T13:53:02;9.70;;;2.97;;
19339;SDS011;9804;52.350;6.684;2023-09-30T13:55:27;8.10;;;2.53;;
19339;SDS011;9804;52.350;6.684;2023-09-30T13:57:53;10.23;;;3.05;;
19339;SDS011;9804;52.350;6.684;2023-09-30T14:00:18;8.63;;;2.90;;
19339;SDS011;9804;52.350;6.684;2023-09-30T14:02:44;11.80;;;2.80;;
19339;SDS011;9804;52.350;6.684;2023-09-30T14:05:09;11.93;;;3.30;;
19339;SDS011;9804;52.350;6.684;2023-09-30T14:07:38;9.00;;;2.42;;
19339;SDS011;9804;52.350;6.684;2023-09-30T14:10:05;12.55;;;3.72;;
19339;SDS011;9804;52.350;6.684;2023-09-30T14:12:31;9.27;;;3.10;;
19339;SDS011;9804;52.350;6.684;2023-09-30T14:14:56;12.48;;;3.17;;
19339;SDS011;9804;52.350;6.684;2023-09-30T14:17:22;12.52;;;3.20;;
19339;SDS011;9804;52.350;6.684;2023-09-30T14:19:47;13.30;;;3.95;;
19339;SDS011;9804;52.350;6.684;2023-09-30T14:22:13;14.00;;;3.00;;
19339;SDS011;9804;52.350;6.684;2023-09-30T14:24:38;10.97;;;2.60;;
19339;SDS011;9804;52.350;6.684;2023-09-30T14:27:04;9.57;;;2.92;;
19339;SDS011;9804;52.350;6.684;2023-09-30T14:29:30;9.73;;;2.78;;
19339;SDS011;9804;52.350;6.684;2023-09-30T14:31:57;7.25;;;2.33;;
19339;SDS011;9804;52.350;6.684;2023-09-30T14:34:23;10.40;;;3.60;;
19339;SDS011;9804;52.350;6.684;2023-09-30T14:36:48;11.02;;;2.90;;
19339;SDS011;9804;52.350;6.684;2023-09-30T14:39:14;8.02;;;2.88;;
19339;SDS011;9804;52.350;6.684;2023-09-30T14:41:41;8.05;;;3.00;;
19339;SDS011;9804;52.350;6.684;2023-09-30T14:44:10;11.32;;;2.83;;
19339;SDS011;9804;52.350;6.684;2023-09-30T14:46:36;11.85;;;4.15;;
19339;SDS011;9804;52.350;6.684;2023-09-30T14:49:03;13.45;;;3.58;;
19339;SDS011;9804;52.350;6.684;2023-09-30T14:51:28;11.13;;;3.67;;
19339;SDS011;9804;52.350;6.684;2023-09-30T14:53:54;12.00;;;3.65;;
19339;SDS011;9804;52.350;6.684;2023-09-30T14:56:19;9.25;;;3.22;;
19339;SDS011;9804;52.350;6.684;2023-09-30T14:58:45;11.82;;;3.05;;
19339;SDS011;9804;52.350;6.684;2023-09-30T15:01:11;13.00;;;3.90;;